sensor_id;sensor_type;location;lat;lon;timestamp;P1;durP1;ratioP1;P2;durP2;ratioP2
66129;SDS011;52930;51.464;11.764;2022-09-13T00:00:32;13.17;;;7.37;;
66129;SDS011;52930;51.464;11.764;2022-09-13T00:02:57;12.05;;;7.55;;
66129;SDS011;52930;51.464;11.764;2022-09-13T00:05:23;14.27;;;8.00;;
66129;SDS011;52930;51.464;11.764;2022-09-13T00:07:48;14.15;;;7.15;;
66129;SDS011;52930;51.464;11.764;2022-09-13T00:10:14;12.60;;;6.83;;
66129;SDS011;52930;51.464;11.764;2022-09-13T00:12:40;12.40;;;6.55;;
66129;SDS011;52930;51.464;11.764;2022-09-13T00:15:05;10.93;;;6.10;;
66129;SDS011;52930;51.464;11.764;2022-09-13T00:17:31;13.73;;;7.82;;
66129;SDS011;52930;51.464;11.764;2022-09-13T00:19:56;13.80;;;8.23;;
66129;SDS011;52930;51.464;11.764;2022-09-13T00:22:22;12.53;;;6.80;;
66129;SDS011;52930;51.464;11.764;2022-09-13T00:24:47;13.10;;;7.20;;
66129;SDS011;52930;51.464;11.764;2022-09-13T00:27:12;12.97;;;6.97;;
66129;SDS011;52930;51.464;11.764;2022-09-13T00:29:38;14.60;;;7.87;;
66129;SDS011;52930;51.464;11.764;2022-09-13T00:32:03;14.13;;;8.00;;
66129;SDS011;52930;51.464;11.764;2022-09-13T00:34:29;16.25;;;7.60;;
66129;SDS011;52930;51.464;11.764;2022-09-13T00:36:54;13.37;;;6.80;;
66129;SDS011;52930;51.464;11.764;2022-09-13T00:39:19;13.30;;;6.83;;
66129;SDS011;52930;51.464;11.764;2022-09-13T00:41:45;12.70;;;6.57;;
66129;SDS011;52930;51.464;11.764;2022-09-13T00:47:10;11.82;;;6.78;;
66129;SDS011;52930;51.464;11.764;2022-09-13T00:49:36;13.07;;;7.35;;
66129;SDS011;52930;51.464;11.764;2022-09-13T00:52:05;13.00;;;6.70;;
66129;SDS011;52930;51.464;11.764;2022-09-13T00:54:35;11.63;;;6.78;;
66129;SDS011;52930;51.464;11.764;2022-09-13T00:57:04;14.80;;;7.18;;
66129;SDS011;52930;51.464;11.764;2022-09-13T00:59:32;14.88;;;7.05;;
66129;SDS011;52930;51.464;11.764;2022-09-13T01:02:00;14.43;;;8.00;;
66129;SDS011;52930;51.464;11.764;2022-09-13T01:04:26;13.00;;;7.78;;
66129;SDS011;52930;51.464;11.764;2022-09-13T01:06:53;14.45;;;7.55;;
66129;SDS011;52930;51.464;11.764;2022-09-13T01:09:21;12.13;;;6.97;;
66129;SDS011;52930;51.464;11.764;2022-09-13T01:11:48;15.32;;;7.43;;
66129;SDS011;52930;51.464;11.764;2022-09-13T01:14:19;12.25;;;7.32;;
66129;SDS011;52930;51.464;11.764;2022-09-13T01:16:46;11.95;;;7.30;;
66129;SDS011;52930;51.464;11.764;2022-09-13T01:19:12;13.17;;;7.33;;
66129;SDS011;52930;51.464;11.764;2022-09-13T01:30:45;16.67;;;7.47;;
66129;SDS011;52930;51.464;11.764;2022-09-13T01:41:35;12.45;;;7.35;;
66129;SDS011;52930;51.464;11.764;2022-09-13T01:46:50;16.33;;;8.13;;
66129;SDS011;52930;51.464;11.764;2022-09-13T01:49:30;14.98;;;8.65;;
66129;SDS011;52930;51.464;11.764;2022-09-13T01:52:00;17.33;;;9.07;;
66129;SDS011;52930;51.464;11.764;2022-09-13T01:54:38;14.98;;;8.23;;
66129;SDS011;52930;51.464;11.764;2022-09-13T02:00:00;15.70;;;7.90;;
66129;SDS011;52930;51.464;11.764;2022-09-13T02:02:35;13.00;;;8.00;;
66129;SDS011;52930;51.464;11.764;2022-09-13T02:05:08;15.85;;;9.05;;
66129;SDS011;52930;51.464;11.764;2022-09-13T02:07:39;17.02;;;9.32;;
66129;SDS011;52930;51.464;11.764;2022-09-13T02:10:08;17.23;;;9.15;;
66129;SDS011;52930;51.464;11.764;2022-09-13T02:12:37;22.50;;;9.15;;
66129;SDS011;52930;51.464;11.764;2022-09-13T02:15:11;15.45;;;8.90;;
66129;SDS011;52930;51.464;11.764;2022-09-13T02:17:48;16.13;;;9.00;;
66129;SDS011;52930;51.464;11.764;2022-09-13T02:20:24;15.00;;;8.52;;
66129;SDS011;52930;51.464;11.764;2022-09-13T02:22:57;14.73;;;8.40;;
66129;SDS011;52930;51.464;11.764;2022-09-13T02:25:24;16.08;;;8.32;;
66129;SDS011;52930;51.464;11.764;2022-09-13T02:27:51;13.95;;;8.10;;
66129;SDS011;52930;51.464;11.764;2022-09-13T02:30:18;15.82;;;8.68;;
66129;SDS011;52930;51.464;11.764;2022-09-13T02:32:54;15.57;;;9.13;;
66129;SDS011;52930;51.464;11.764;2022-09-13T02:35:23;18.95;;;9.77;;
66129;SDS011;52930;51.464;11.764;2022-09-13T02:38:09;21.55;;;9.70;;
66129;SDS011;52930;51.464;11.764;2022-09-13T02:40:38;16.30;;;8.50;;
66129;SDS011;52930;51.464;11.764;2022-09-13T02:43:08;19.45;;;8.32;;
66129;SDS011;52930;51.464;11.764;2022-09-13T02:45:40;16.23;;;8.87;;
66129;SDS011;52930;51.464;11.764;2022-09-13T02:48:11;18.55;;;9.07;;
66129;SDS011;52930;51.464;11.764;2022-09-13T02:53:25;19.08;;;9.18;;
66129;SDS011;52930;51.464;11.764;2022-09-13T03:01:17;15.43;;;7.95;;
66129;SDS011;52930;51.464;11.764;2022-09-13T03:03:43;15.63;;;8.82;;
66129;SDS011;52930;51.464;11.764;2022-09-13T03:06:08;15.75;;;8.75;;
66129;SDS011;52930;51.464;11.764;2022-09-13T03:08:34;14.43;;;7.83;;
66129;SDS011;52930;51.464;11.764;2022-09-13T03:22:14;14.83;;;7.00;;
66129;SDS011;52930;51.464;11.764;2022-09-13T03:27:43;13.32;;;6.63;;
66129;SDS011;52930;51.464;11.764;2022-09-13T03:30:13;14.18;;;6.78;;
66129;SDS011;52930;51.464;11.764;2022-09-13T03:43:19;13.32;;;6.80;;
66129;SDS011;52930;51.464;11.764;2022-09-13T03:45:54;11.68;;;5.82;;
66129;SDS011;52930;51.464;11.764;2022-09-13T03:48:21;13.73;;;6.32;;
66129;SDS011;52930;51.464;11.764;2022-09-13T03:50:47;13.17;;;5.63;;
66129;SDS011;52930;51.464;11.764;2022-09-13T03:53:14;10.55;;;4.97;;
66129;SDS011;52930;51.464;11.764;2022-09-13T03:55:44;14.82;;;6.05;;
66129;SDS011;52930;51.464;11.764;2022-09-13T03:58:13;12.77;;;5.17;;
66129;SDS011;52930;51.464;11.764;2022-09-13T04:00:40;10.77;;;5.00;;
66129;SDS011;52930;51.464;11.764;2022-09-13T04:03:05;11.10;;;5.23;;
66129;SDS011;52930;51.464;11.764;2022-09-13T04:05:31;9.57;;;5.03;;
66129;SDS011;52930;51.464;11.764;2022-09-13T04:07:58;10.53;;;4.87;;
66129;SDS011;52930;51.464;11.764;2022-09-13T04:10:23;10.52;;;5.00;;
66129;SDS011;52930;51.464;11.764;2022-09-13T04:12:49;11.03;;;5.43;;
66129;SDS011;52930;51.464;11.764;2022-09-13T04:15:14;10.77;;;5.30;;
66129;SDS011;52930;51.464;11.764;2022-09-13T04:17:40;12.90;;;5.10;;
66129;SDS011;52930;51.464;11.764;2022-09-13T04:20:06;11.30;;;5.40;;
66129;SDS011;52930;51.464;11.764;2022-09-13T04:22:31;11.17;;;5.10;;
66129;SDS011;52930;51.464;11.764;2022-09-13T04:24:57;11.70;;;5.60;;
66129;SDS011;52930;51.464;11.764;2022-09-13T04:27:22;15.37;;;5.77;;
66129;SDS011;52930;51.464;11.764;2022-09-13T04:29:49;11.57;;;5.60;;
66129;SDS011;52930;51.464;11.764;2022-09-13T04:32:14;11.03;;;5.77;;
66129;SDS011;52930;51.464;11.764;2022-09-13T04:34:40;11.83;;;5.30;;
66129;SDS011;52930;51.464;11.764;2022-09-13T04:37:05;11.87;;;5.37;;
66129;SDS011;52930;51.464;11.764;2022-09-13T04:39:30;12.03;;;5.60;;
66129;SDS011;52930;51.464;11.764;2022-09-13T04:41:56;10.63;;;5.40;;
66129;SDS011;52930;51.464;11.764;2022-09-13T04:44:23;10.82;;;5.35;;
66129;SDS011;52930;51.464;11.764;2022-09-13T04:46:48;11.07;;;5.20;;
66129;SDS011;52930;51.464;11.764;2022-09-13T04:49:15;12.32;;;5.15;;
66129;SDS011;52930;51.464;11.764;2022-09-13T04:51:41;12.05;;;5.45;;
66129;SDS011;52930;51.464;11.764;2022-09-13T04:54:07;11.77;;;5.40;;
66129;SDS011;52930;51.464;11.764;2022-09-13T04:56:34;12.68;;;5.25;;
66129;SDS011;52930;51.464;11.764;2022-09-13T04:59:00;13.67;;;5.47;;
66129;SDS011;52930;51.464;11.764;2022-09-13T05:01:25;9.98;;;4.88;;
66129;SDS011;52930;51.464;11.764;2022-09-13T05:03:51;12.03;;;5.60;;
66129;SDS011;52930;51.464;11.764;2022-09-13T05:06:17;10.95;;;5.55;;
66129;SDS011;52930;51.464;11.764;2022-09-13T05:08:43;10.82;;;5.10;;
66129;SDS011;52930;51.464;11.764;2022-09-13T05:11:09;11.65;;;4.97;;
66129;SDS011;52930;51.464;11.764;2022-09-13T05:13:35;15.43;;;5.32;;
66129;SDS011;52930;51.464;11.764;2022-09-13T05:16:05;11.60;;;5.20;;
66129;SDS011;52930;51.464;11.764;2022-09-13T05:18:35;10.00;;;4.97;;
66129;SDS011;52930;51.464;11.764;2022-09-13T05:21:01;10.68;;;5.35;;
66129;SDS011;52930;51.464;11.764;2022-09-13T05:23:28;10.40;;;5.03;;
66129;SDS011;52930;51.464;11.764;2022-09-13T05:25:54;11.75;;;4.80;;
66129;SDS011;52930;51.464;11.764;2022-09-13T05:28:20;10.60;;;4.75;;
66129;SDS011;52930;51.464;11.764;2022-09-13T05:30:56;10.73;;;4.65;;
66129;SDS011;52930;51.464;11.764;2022-09-13T05:33:23;10.85;;;4.40;;
66129;SDS011;52930;51.464;11.764;2022-09-13T05:35:49;12.73;;;4.93;;
66129;SDS011;52930;51.464;11.764;2022-09-13T05:38:15;11.57;;;4.80;;
66129;SDS011;52930;51.464;11.764;2022-09-13T05:40:40;10.47;;;4.57;;
66129;SDS011;52930;51.464;11.764;2022-09-13T05:43:05;10.57;;;4.73;;
66129;SDS011;52930;51.464;11.764;2022-09-13T05:45:31;10.27;;;4.87;;
66129;SDS011;52930;51.464;11.764;2022-09-13T05:47:56;12.82;;;4.55;;
66129;SDS011;52930;51.464;11.764;2022-09-13T05:50:21;14.43;;;4.97;;
66129;SDS011;52930;51.464;11.764;2022-09-13T05:52:51;9.43;;;4.73;;
66129;SDS011;52930;51.464;11.764;2022-09-13T05:55:19;12.77;;;5.25;;
66129;SDS011;52930;51.464;11.764;2022-09-13T05:57:45;13.77;;;5.95;;
66129;SDS011;52930;51.464;11.764;2022-09-13T06:00:10;14.30;;;5.47;;
66129;SDS011;52930;51.464;11.764;2022-09-13T06:02:37;16.38;;;6.15;;
66129;SDS011;52930;51.464;11.764;2022-09-13T06:05:02;13.43;;;7.03;;
66129;SDS011;52930;51.464;11.764;2022-09-13T06:07:27;16.03;;;6.87;;
66129;SDS011;52930;51.464;11.764;2022-09-13T06:09:53;14.50;;;7.50;;
66129;SDS011;52930;51.464;11.764;2022-09-13T06:12:18;13.53;;;6.87;;
66129;SDS011;52930;51.464;11.764;2022-09-13T06:14:43;15.55;;;7.53;;
66129;SDS011;52930;51.464;11.764;2022-09-13T06:17:09;14.47;;;7.17;;
66129;SDS011;52930;51.464;11.764;2022-09-13T06:19:34;14.93;;;7.60;;
66129;SDS011;52930;51.464;11.764;2022-09-13T06:21:59;15.03;;;7.77;;
66129;SDS011;52930;51.464;11.764;2022-09-13T06:24:25;16.33;;;8.23;;
66129;SDS011;52930;51.464;11.764;2022-09-13T06:26:50;18.47;;;8.80;;
66129;SDS011;52930;51.464;11.764;2022-09-13T06:29:15;18.23;;;8.00;;
66129;SDS011;52930;51.464;11.764;2022-09-13T06:31:41;14.83;;;7.57;;
66129;SDS011;52930;51.464;11.764;2022-09-13T06:34:09;16.17;;;7.28;;
66129;SDS011;52930;51.464;11.764;2022-09-13T06:36:40;17.30;;;8.23;;
66129;SDS011;52930;51.464;11.764;2022-09-13T06:39:05;14.40;;;8.03;;
66129;SDS011;52930;51.464;11.764;2022-09-13T06:41:31;16.15;;;8.00;;
66129;SDS011;52930;51.464;11.764;2022-09-13T06:43:57;17.08;;;8.07;;
66129;SDS011;52930;51.464;11.764;2022-09-13T06:46:24;16.00;;;8.02;;
66129;SDS011;52930;51.464;11.764;2022-09-13T06:48:50;16.50;;;8.15;;
66129;SDS011;52930;51.464;11.764;2022-09-13T06:51:17;14.80;;;7.53;;
66129;SDS011;52930;51.464;11.764;2022-09-13T06:53:45;16.75;;;8.10;;
66129;SDS011;52930;51.464;11.764;2022-09-13T06:56:13;18.38;;;8.07;;
66129;SDS011;52930;51.464;11.764;2022-09-13T06:58:41;16.57;;;8.43;;
66129;SDS011;52930;51.464;11.764;2022-09-13T07:01:18;20.92;;;8.45;;
66129;SDS011;52930;51.464;11.764;2022-09-13T07:03:46;19.58;;;8.25;;
66129;SDS011;52930;51.464;11.764;2022-09-13T07:06:14;14.40;;;7.97;;
66129;SDS011;52930;51.464;11.764;2022-09-13T07:08:44;15.70;;;7.95;;
66129;SDS011;52930;51.464;11.764;2022-09-13T07:11:11;15.85;;;7.65;;
66129;SDS011;52930;51.464;11.764;2022-09-13T07:13:38;14.75;;;6.85;;
66129;SDS011;52930;51.464;11.764;2022-09-13T07:16:04;15.13;;;7.60;;
66129;SDS011;52930;51.464;11.764;2022-09-13T07:18:31;13.98;;;7.57;;
66129;SDS011;52930;51.464;11.764;2022-09-13T07:21:00;14.90;;;7.77;;
66129;SDS011;52930;51.464;11.764;2022-09-13T07:23:28;13.63;;;7.05;;
66129;SDS011;52930;51.464;11.764;2022-09-13T07:25:54;16.30;;;8.57;;
66129;SDS011;52930;51.464;11.764;2022-09-13T07:28:25;14.02;;;6.90;;
66129;SDS011;52930;51.464;11.764;2022-09-13T07:30:55;17.60;;;7.13;;
66129;SDS011;52930;51.464;11.764;2022-09-13T07:33:22;13.23;;;7.00;;
66129;SDS011;52930;51.464;11.764;2022-09-13T07:35:53;13.45;;;7.65;;
66129;SDS011;52930;51.464;11.764;2022-09-13T07:38:19;13.43;;;7.18;;
66129;SDS011;52930;51.464;11.764;2022-09-13T07:40:51;12.93;;;6.63;;
66129;SDS011;52930;51.464;11.764;2022-09-13T07:43:18;12.43;;;6.57;;
66129;SDS011;52930;51.464;11.764;2022-09-13T07:45:43;12.37;;;6.30;;
66129;SDS011;52930;51.464;11.764;2022-09-13T07:48:09;16.00;;;7.53;;
66129;SDS011;52930;51.464;11.764;2022-09-13T07:50:34;11.70;;;6.77;;
66129;SDS011;52930;51.464;11.764;2022-09-13T07:52:59;11.40;;;6.43;;
66129;SDS011;52930;51.464;11.764;2022-09-13T07:55:25;10.98;;;6.38;;
66129;SDS011;52930;51.464;11.764;2022-09-13T07:57:50;12.13;;;6.70;;
66129;SDS011;52930;51.464;11.764;2022-09-13T08:00:16;13.60;;;6.33;;
66129;SDS011;52930;51.464;11.764;2022-09-13T08:02:41;11.57;;;5.77;;
66129;SDS011;52930;51.464;11.764;2022-09-13T08:05:06;10.47;;;5.33;;
66129;SDS011;52930;51.464;11.764;2022-09-13T08:07:32;10.13;;;5.40;;
66129;SDS011;52930;51.464;11.764;2022-09-13T08:09:57;10.93;;;5.30;;
66129;SDS011;52930;51.464;11.764;2022-09-13T08:12:22;11.20;;;5.33;;
66129;SDS011;52930;51.464;11.764;2022-09-13T08:14:48;10.53;;;4.93;;
66129;SDS011;52930;51.464;11.764;2022-09-13T08:17:13;10.87;;;4.70;;
66129;SDS011;52930;51.464;11.764;2022-09-13T08:19:38;8.60;;;4.87;;
66129;SDS011;52930;51.464;11.764;2022-09-13T08:22:04;9.40;;;4.40;;
66129;SDS011;52930;51.464;11.764;2022-09-13T08:24:29;10.50;;;4.83;;
66129;SDS011;52930;51.464;11.764;2022-09-13T08:26:54;10.83;;;4.77;;
66129;SDS011;52930;51.464;11.764;2022-09-13T08:29:20;8.23;;;4.63;;
66129;SDS011;52930;51.464;11.764;2022-09-13T08:31:45;8.13;;;4.20;;
66129;SDS011;52930;51.464;11.764;2022-09-13T08:34:11;8.57;;;4.40;;
66129;SDS011;52930;51.464;11.764;2022-09-13T08:36:38;8.10;;;4.20;;
66129;SDS011;52930;51.464;11.764;2022-09-13T08:39:05;8.45;;;4.50;;
66129;SDS011;52930;51.464;11.764;2022-09-13T08:41:34;8.93;;;4.87;;
66129;SDS011;52930;51.464;11.764;2022-09-13T08:44:04;10.82;;;4.53;;
66129;SDS011;52930;51.464;11.764;2022-09-13T08:46:37;9.18;;;4.68;;
66129;SDS011;52930;51.464;11.764;2022-09-13T08:49:05;7.88;;;4.28;;
66129;SDS011;52930;51.464;11.764;2022-09-13T08:54:12;9.23;;;4.57;;
66129;SDS011;52930;51.464;11.764;2022-09-13T09:05:35;8.40;;;4.60;;
66129;SDS011;52930;51.464;11.764;2022-09-13T09:08:10;8.85;;;4.88;;
66129;SDS011;52930;51.464;11.764;2022-09-13T09:10:45;8.15;;;4.50;;
66129;SDS011;52930;51.464;11.764;2022-09-13T09:13:29;8.35;;;4.25;;
66129;SDS011;52930;51.464;11.764;2022-09-13T09:16:00;8.65;;;4.20;;
66129;SDS011;52930;51.464;11.764;2022-09-13T09:18:34;9.03;;;4.50;;
66129;SDS011;52930;51.464;11.764;2022-09-13T09:21:02;10.70;;;4.40;;
66129;SDS011;52930;51.464;11.764;2022-09-13T09:26:29;6.57;;;3.67;;
66129;SDS011;52930;51.464;11.764;2022-09-13T09:28:59;7.83;;;3.93;;
66129;SDS011;52930;51.464;11.764;2022-09-13T09:34:20;6.72;;;3.90;;
66129;SDS011;52930;51.464;11.764;2022-09-13T09:37:01;11.00;;;4.17;;
66129;SDS011;52930;51.464;11.764;2022-09-13T09:39:32;7.20;;;3.83;;
66129;SDS011;52930;51.464;11.764;2022-09-13T09:42:03;7.28;;;3.90;;
66129;SDS011;52930;51.464;11.764;2022-09-13T09:44:29;8.18;;;4.10;;
66129;SDS011;52930;51.464;11.764;2022-09-13T09:49:47;6.13;;;3.80;;
66129;SDS011;52930;51.464;11.764;2022-09-13T09:52:43;7.53;;;4.18;;
66129;SDS011;52930;51.464;11.764;2022-09-13T09:55:30;7.78;;;3.95;;
66129;SDS011;52930;51.464;11.764;2022-09-13T09:58:02;6.93;;;3.90;;
66129;SDS011;52930;51.464;11.764;2022-09-13T10:00:34;8.98;;;3.33;;
66129;SDS011;52930;51.464;11.764;2022-09-13T10:03:04;7.47;;;3.60;;
66129;SDS011;52930;51.464;11.764;2022-09-13T10:05:31;10.00;;;3.55;;
66129;SDS011;52930;51.464;11.764;2022-09-13T10:08:02;6.20;;;3.33;;
66129;SDS011;52930;51.464;11.764;2022-09-13T10:10:39;6.68;;;3.40;;
66129;SDS011;52930;51.464;11.764;2022-09-13T10:13:10;9.13;;;3.60;;
66129;SDS011;52930;51.464;11.764;2022-09-13T10:15:39;6.10;;;3.40;;
66129;SDS011;52930;51.464;11.764;2022-09-13T10:18:26;6.35;;;3.40;;
66129;SDS011;52930;51.464;11.764;2022-09-13T10:20:59;7.32;;;3.88;;
66129;SDS011;52930;51.464;11.764;2022-09-13T10:23:26;5.90;;;3.28;;
66129;SDS011;52930;51.464;11.764;2022-09-13T10:25:56;5.73;;;3.27;;
66129;SDS011;52930;51.464;11.764;2022-09-13T10:28:22;6.20;;;3.30;;
66129;SDS011;52930;51.464;11.764;2022-09-13T10:30:55;6.28;;;3.45;;
66129;SDS011;52930;51.464;11.764;2022-09-13T10:33:34;7.47;;;3.85;;
66129;SDS011;52930;51.464;11.764;2022-09-13T10:36:13;7.72;;;3.72;;
66129;SDS011;52930;51.464;11.764;2022-09-13T10:38:41;6.53;;;3.03;;
66129;SDS011;52930;51.464;11.764;2022-09-13T10:41:20;7.75;;;3.58;;
66129;SDS011;52930;51.464;11.764;2022-09-13T10:43:48;8.80;;;3.30;;
66129;SDS011;52930;51.464;11.764;2022-09-13T10:46:20;8.90;;;3.67;;
66129;SDS011;52930;51.464;11.764;2022-09-13T10:48:47;8.02;;;3.38;;
66129;SDS011;52930;51.464;11.764;2022-09-13T10:54:05;7.20;;;2.78;;
66129;SDS011;52930;51.464;11.764;2022-09-13T10:56:34;6.40;;;2.90;;
66129;SDS011;52930;51.464;11.764;2022-09-13T11:05:28;6.40;;;3.40;;
66129;SDS011;52930;51.464;11.764;2022-09-13T11:21:57;6.87;;;3.17;;
66129;SDS011;52930;51.464;11.764;2022-09-13T11:24:37;7.25;;;3.40;;
66129;SDS011;52930;51.464;11.764;2022-09-13T11:27:30;8.55;;;3.90;;
66129;SDS011;52930;51.464;11.764;2022-09-13T11:40:57;6.18;;;2.75;;
66129;SDS011;52930;51.464;11.764;2022-09-13T11:54:10;6.85;;;3.08;;
66129;SDS011;52930;51.464;11.764;2022-09-13T11:56:41;8.25;;;3.50;;
66129;SDS011;52930;51.464;11.764;2022-09-13T12:01:38;11.50;;;3.17;;
66129;SDS011;52930;51.464;11.764;2022-09-13T12:04:08;14.77;;;3.93;;
66129;SDS011;52930;51.464;11.764;2022-09-13T12:06:39;9.48;;;3.00;;
66129;SDS011;52930;51.464;11.764;2022-09-13T12:09:11;7.05;;;2.97;;
66129;SDS011;52930;51.464;11.764;2022-09-13T12:11:42;6.22;;;2.95;;
66129;SDS011;52930;51.464;11.764;2022-09-13T12:14:11;7.70;;;2.70;;
66129;SDS011;52930;51.464;11.764;2022-09-13T12:19:22;6.35;;;2.45;;
66129;SDS011;52930;51.464;11.764;2022-09-13T12:21:51;6.95;;;2.78;;
66129;SDS011;52930;51.464;11.764;2022-09-13T12:24:33;8.52;;;3.05;;
66129;SDS011;52930;51.464;11.764;2022-09-13T12:27:30;8.13;;;3.30;;
66129;SDS011;52930;51.464;11.764;2022-09-13T12:30:04;5.97;;;2.83;;
66129;SDS011;52930;51.464;11.764;2022-09-13T12:32:33;8.70;;;3.15;;
66129;SDS011;52930;51.464;11.764;2022-09-13T12:35:08;7.93;;;3.40;;
66129;SDS011;52930;51.464;11.764;2022-09-13T12:48:55;9.43;;;3.57;;
66129;SDS011;52930;51.464;11.764;2022-09-13T12:54:19;11.18;;;3.05;;
66129;SDS011;52930;51.464;11.764;2022-09-13T12:57:26;7.70;;;3.15;;
66129;SDS011;52930;51.464;11.764;2022-09-13T13:02:37;6.80;;;3.47;;
66129;SDS011;52930;51.464;11.764;2022-09-13T13:05:05;7.80;;;3.30;;
66129;SDS011;52930;51.464;11.764;2022-09-13T13:07:57;6.25;;;2.55;;
66129;SDS011;52930;51.464;11.764;2022-09-13T13:12:59;7.60;;;2.53;;
66129;SDS011;52930;51.464;11.764;2022-09-13T13:18:19;5.10;;;2.47;;
66129;SDS011;52930;51.464;11.764;2022-09-13T13:31:09;5.73;;;2.40;;
66129;SDS011;52930;51.464;11.764;2022-09-13T13:33:47;6.90;;;2.20;;
66129;SDS011;52930;51.464;11.764;2022-09-13T13:36:24;6.65;;;2.20;;
66129;SDS011;52930;51.464;11.764;2022-09-13T13:46:46;4.87;;;2.30;;
66129;SDS011;52930;51.464;11.764;2022-09-13T14:08:16;6.05;;;2.10;;
66129;SDS011;52930;51.464;11.764;2022-09-13T14:14:17;5.73;;;2.07;;
66129;SDS011;52930;51.464;11.764;2022-09-13T14:19:38;5.13;;;2.00;;
66129;SDS011;52930;51.464;11.764;2022-09-13T14:22:13;5.13;;;1.42;;
66129;SDS011;52930;51.464;11.764;2022-09-13T14:24:43;7.70;;;2.15;;
66129;SDS011;52930;51.464;11.764;2022-09-13T14:27:17;7.77;;;1.67;;
66129;SDS011;52930;51.464;11.764;2022-09-13T14:29:45;5.35;;;2.00;;
66129;SDS011;52930;51.464;11.764;2022-09-13T14:32:15;7.05;;;1.70;;
66129;SDS011;52930;51.464;11.764;2022-09-13T14:34:59;5.13;;;1.65;;
66129;SDS011;52930;51.464;11.764;2022-09-13T14:37:30;4.60;;;1.90;;
66129;SDS011;52930;51.464;11.764;2022-09-13T14:42:37;6.32;;;3.20;;
66129;SDS011;52930;51.464;11.764;2022-09-13T14:45:03;8.45;;;3.85;;
66129;SDS011;52930;51.464;11.764;2022-09-13T14:47:39;10.00;;;3.65;;
66129;SDS011;52930;51.464;11.764;2022-09-13T14:50:21;8.57;;;4.10;;
66129;SDS011;52930;51.464;11.764;2022-09-13T14:55:24;8.18;;;4.00;;
66129;SDS011;52930;51.464;11.764;2022-09-13T14:57:52;7.70;;;3.72;;
66129;SDS011;52930;51.464;11.764;2022-09-13T15:00:22;8.75;;;3.65;;
66129;SDS011;52930;51.464;11.764;2022-09-13T15:02:54;12.17;;;3.63;;
66129;SDS011;52930;51.464;11.764;2022-09-13T15:05:23;11.48;;;3.75;;
66129;SDS011;52930;51.464;11.764;2022-09-13T15:07:50;8.35;;;4.22;;
66129;SDS011;52930;51.464;11.764;2022-09-13T15:10:20;9.40;;;3.90;;
66129;SDS011;52930;51.464;11.764;2022-09-13T15:15:29;7.65;;;3.88;;
66129;SDS011;52930;51.464;11.764;2022-09-13T15:23:41;9.33;;;3.50;;
66129;SDS011;52930;51.464;11.764;2022-09-13T15:26:20;8.43;;;3.33;;
66129;SDS011;52930;51.464;11.764;2022-09-13T15:28:55;8.00;;;3.22;;
66129;SDS011;52930;51.464;11.764;2022-09-13T15:39:29;10.98;;;3.85;;
66129;SDS011;52930;51.464;11.764;2022-09-13T15:42:08;8.80;;;3.53;;
66129;SDS011;52930;51.464;11.764;2022-09-13T15:44:33;7.73;;;3.43;;
66129;SDS011;52930;51.464;11.764;2022-09-13T15:46:59;9.40;;;3.93;;
66129;SDS011;52930;51.464;11.764;2022-09-13T15:49:29;8.30;;;3.55;;
66129;SDS011;52930;51.464;11.764;2022-09-13T15:51:59;9.75;;;3.53;;
66129;SDS011;52930;51.464;11.764;2022-09-13T15:54:47;14.05;;;3.97;;
66129;SDS011;52930;51.464;11.764;2022-09-13T15:57:20;10.67;;;3.80;;
66129;SDS011;52930;51.464;11.764;2022-09-13T15:59:49;11.25;;;3.60;;
66129;SDS011;52930;51.464;11.764;2022-09-13T16:02:22;8.95;;;3.72;;
66129;SDS011;52930;51.464;11.764;2022-09-13T16:04:52;8.52;;;3.50;;
66129;SDS011;52930;51.464;11.764;2022-09-13T16:07:18;8.70;;;3.90;;
66129;SDS011;52930;51.464;11.764;2022-09-13T16:09:44;7.88;;;4.10;;
66129;SDS011;52930;51.464;11.764;2022-09-13T16:12:09;8.47;;;3.97;;
66129;SDS011;52930;51.464;11.764;2022-09-13T16:14:35;8.57;;;3.60;;
66129;SDS011;52930;51.464;11.764;2022-09-13T16:17:05;10.88;;;3.75;;
66129;SDS011;52930;51.464;11.764;2022-09-13T16:19:32;9.70;;;3.85;;
66129;SDS011;52930;51.464;11.764;2022-09-13T16:21:57;11.90;;;3.77;;
66129;SDS011;52930;51.464;11.764;2022-09-13T16:24:23;8.10;;;4.00;;
66129;SDS011;52930;51.464;11.764;2022-09-13T16:26:48;7.43;;;3.37;;
66129;SDS011;52930;51.464;11.764;2022-09-13T16:29:13;11.13;;;3.73;;
66129;SDS011;52930;51.464;11.764;2022-09-13T16:31:39;8.23;;;3.73;;
66129;SDS011;52930;51.464;11.764;2022-09-13T16:34:04;7.40;;;3.70;;
66129;SDS011;52930;51.464;11.764;2022-09-13T16:36:30;6.90;;;3.85;;
66129;SDS011;52930;51.464;11.764;2022-09-13T16:38:58;7.95;;;3.78;;
66129;SDS011;52930;51.464;11.764;2022-09-13T16:41:23;6.93;;;3.73;;
66129;SDS011;52930;51.464;11.764;2022-09-13T16:43:48;6.57;;;3.50;;
66129;SDS011;52930;51.464;11.764;2022-09-13T16:46:14;7.05;;;3.92;;
66129;SDS011;52930;51.464;11.764;2022-09-13T16:48:40;9.27;;;4.00;;
66129;SDS011;52930;51.464;11.764;2022-09-13T16:51:07;9.05;;;3.72;;
66129;SDS011;52930;51.464;11.764;2022-09-13T16:53:35;7.72;;;3.95;;
66129;SDS011;52930;51.464;11.764;2022-09-13T16:56:03;8.80;;;4.03;;
66129;SDS011;52930;51.464;11.764;2022-09-13T16:58:39;7.15;;;4.05;;
66129;SDS011;52930;51.464;11.764;2022-09-13T17:01:05;9.18;;;4.47;;
66129;SDS011;52930;51.464;11.764;2022-09-13T17:03:32;7.90;;;3.90;;
66129;SDS011;52930;51.464;11.764;2022-09-13T17:06:00;9.23;;;4.38;;
66129;SDS011;52930;51.464;11.764;2022-09-13T17:08:26;10.00;;;4.90;;
66129;SDS011;52930;51.464;11.764;2022-09-13T17:10:52;8.37;;;4.40;;
66129;SDS011;52930;51.464;11.764;2022-09-13T17:13:17;9.25;;;4.60;;
66129;SDS011;52930;51.464;11.764;2022-09-13T17:15:42;9.57;;;4.47;;
66129;SDS011;52930;51.464;11.764;2022-09-13T17:18:08;9.30;;;4.33;;
66129;SDS011;52930;51.464;11.764;2022-09-13T17:20:34;9.05;;;4.18;;
66129;SDS011;52930;51.464;11.764;2022-09-13T17:23:00;9.07;;;4.30;;
66129;SDS011;52930;51.464;11.764;2022-09-13T17:25:25;9.70;;;3.97;;
66129;SDS011;52930;51.464;11.764;2022-09-13T17:27:50;8.63;;;4.33;;
66129;SDS011;52930;51.464;11.764;2022-09-13T17:30:16;9.87;;;4.57;;
66129;SDS011;52930;51.464;11.764;2022-09-13T17:32:42;10.13;;;3.67;;
66129;SDS011;52930;51.464;11.764;2022-09-13T17:35:07;9.80;;;3.50;;
66129;SDS011;52930;51.464;11.764;2022-09-13T17:37:34;9.20;;;4.10;;
66129;SDS011;52930;51.464;11.764;2022-09-13T17:40:00;9.13;;;4.43;;
66129;SDS011;52930;51.464;11.764;2022-09-13T17:42:25;8.90;;;3.97;;
66129;SDS011;52930;51.464;11.764;2022-09-13T17:44:51;7.50;;;4.03;;
66129;SDS011;52930;51.464;11.764;2022-09-13T17:47:16;9.77;;;4.37;;
66129;SDS011;52930;51.464;11.764;2022-09-13T17:49:41;7.00;;;4.10;;
66129;SDS011;52930;51.464;11.764;2022-09-13T17:52:07;9.27;;;3.87;;
66129;SDS011;52930;51.464;11.764;2022-09-13T17:54:32;8.63;;;3.70;;
66129;SDS011;52930;51.464;11.764;2022-09-13T17:56:57;12.90;;;4.80;;
66129;SDS011;52930;51.464;11.764;2022-09-13T17:59:23;10.73;;;4.97;;
66129;SDS011;52930;51.464;11.764;2022-09-13T18:01:50;9.43;;;3.80;;
66129;SDS011;52930;51.464;11.764;2022-09-13T18:04:17;8.40;;;3.60;;
66129;SDS011;52930;51.464;11.764;2022-09-13T18:06:44;9.75;;;4.15;;
66129;SDS011;52930;51.464;11.764;2022-09-13T18:09:10;10.77;;;3.77;;
66129;SDS011;52930;51.464;11.764;2022-09-13T18:11:36;9.55;;;4.05;;